createdAt,value
2022-12-24T00:01:54.231Z,5.43
2022-12-24T00:05:55.248Z,8.10
2022-12-24T00:09:56.362Z,6.70
2022-12-24T00:13:57.618Z,13.43
2022-12-24T00:17:58.871Z,14.00
2022-12-24T00:21:59.931Z,7.13
2022-12-24T00:26:01.487Z,10.27
2022-12-24T00:30:03.020Z,8.13
2022-12-24T00:34:04.254Z,7.17
2022-12-24T00:38:06.149Z,7.37
2022-12-24T00:42:07.270Z,11.40
2022-12-24T00:46:08.305Z,10.53
2022-12-24T00:50:09.801Z,9.57
2022-12-24T00:54:12.757Z,9.80
2022-12-24T00:58:13.967Z,12.77
2022-12-24T01:02:15.134Z,11.20
2022-12-24T01:06:20.057Z,11.20
2022-12-24T01:10:21.165Z,12.43
2022-12-24T01:14:22.312Z,12.60
2022-12-24T01:18:24.187Z,18.10
2022-12-24T01:22:25.170Z,14.43
2022-12-24T01:26:26.354Z,7.50
2022-12-24T01:30:27.596Z,10.47
2022-12-24T01:34:28.771Z,9.77
2022-12-24T01:38:29.878Z,12.30
2022-12-24T01:42:49.645Z,14.03
2022-12-24T01:46:54.565Z,15.73
2022-12-24T01:50:59.586Z,12.07
2022-12-24T01:55:13.665Z,11.50
2022-12-24T01:59:17.578Z,9.00
2022-12-24T02:03:19.449Z,7.27
2022-12-24T02:07:21.000Z,9.87
2022-12-24T02:11:22.217Z,12.67
2022-12-24T02:15:23.777Z,9.00
2022-12-24T02:19:37.879Z,13.13
2022-12-24T02:24:02.252Z,14.50
2022-12-24T02:28:23.544Z,13.93
2022-12-24T02:32:28.473Z,12.33
2022-12-24T02:36:39.415Z,14.23
2022-12-24T02:40:44.339Z,19.27
2022-12-24T02:44:55.456Z,9.63
2022-12-24T02:48:58.545Z,10.70
2022-12-24T02:52:59.660Z,8.27
2022-12-24T02:57:13.676Z,15.13
2022-12-24T03:01:52.150Z,13.07
2022-12-24T03:06:00.199Z,10.73
2022-12-24T03:10:23.282Z,13.10
2022-12-24T03:14:26.167Z,12.87
2022-12-24T03:18:29.541Z,13.40
2022-12-24T03:22:33.473Z,15.33
2022-12-24T03:26:35.961Z,13.47
2022-12-24T03:30:40.966Z,17.63
2022-12-24T03:34:42.103Z,9.97
2022-12-24T03:38:43.565Z,14.87
2022-12-24T03:42:44.727Z,14.70
2022-12-24T03:46:45.730Z,14.47
2022-12-24T03:50:46.747Z,7.47
2022-12-24T03:54:47.794Z,9.37
2022-12-24T03:58:49.187Z,15.33
2022-12-24T04:02:50.533Z,11.30
2022-12-24T04:06:51.639Z,14.67
2022-12-24T04:10:52.712Z,11.57
2022-12-24T04:14:53.651Z,17.67
2022-12-24T04:18:54.759Z,11.93
2022-12-24T04:22:55.719Z,10.83
2022-12-24T04:26:56.946Z,12.73
2022-12-24T04:31:07.253Z,14.47
2022-12-24T04:35:09.168Z,12.20
2022-12-24T04:39:10.239Z,14.57
2022-12-24T04:43:11.188Z,10.63
2022-12-24T04:47:12.177Z,11.37
2022-12-24T04:51:14.880Z,11.00
2022-12-24T04:55:17.101Z,15.90
2022-12-24T04:59:18.019Z,15.20
2022-12-24T05:03:19.334Z,13.50
2022-12-24T05:07:20.246Z,8.87
2022-12-24T05:11:21.877Z,7.63
2022-12-24T05:15:22.847Z,7.43
2022-12-24T05:19:24.106Z,10.57
2022-12-24T05:23:44.033Z,11.70
2022-12-24T05:27:51.029Z,8.73
2022-12-24T05:31:49.319Z,12.93
2022-12-24T05:35:51.717Z,9.30
2022-12-24T05:39:58.767Z,13.57
2022-12-24T05:44:00.397Z,16.80
2022-12-24T05:48:01.396Z,10.30
2022-12-24T05:52:02.685Z,18.77
2022-12-24T05:56:09.685Z,11.50
2022-12-24T06:00:11.278Z,13.10
2022-12-24T06:04:12.786Z,12.97
2022-12-24T06:08:13.781Z,11.33
2022-12-24T06:12:14.891Z,14.47
2022-12-24T06:16:19.079Z,10.40
2022-12-24T06:20:20.344Z,18.10
2022-12-24T06:24:21.745Z,12.37
2022-12-24T06:28:23.106Z,11.53
2022-12-24T06:32:24.221Z,14.73
2022-12-24T06:36:26.311Z,13.03
2022-12-24T06:40:27.678Z,18.87
2022-12-24T06:44:28.640Z,13.77
2022-12-24T06:48:29.728Z,14.07
2022-12-24T06:52:30.867Z,18.43
2022-12-24T06:56:31.887Z,13.67
2022-12-24T07:00:33.115Z,17.67
2022-12-24T07:04:34.114Z,12.33
2022-12-24T07:08:35.755Z,17.40
2022-12-24T07:12:36.879Z,23.37
2022-12-24T07:16:38.230Z,20.53
2022-12-24T07:20:39.330Z,19.03
2022-12-24T07:24:40.731Z,21.20
2022-12-24T07:28:41.822Z,21.13
2022-12-24T07:32:43.040Z,22.73
2022-12-24T07:36:44.162Z,26.13
2022-12-24T07:40:45.255Z,16.13
2022-12-24T07:44:46.341Z,21.47
2022-12-24T07:48:47.303Z,16.33
2022-12-24T07:52:48.413Z,28.10
2022-12-24T07:56:49.777Z,21.80
2022-12-24T08:00:58.861Z,22.00
2022-12-24T08:05:00.072Z,20.13
2022-12-24T08:09:01.448Z,20.93
2022-12-24T08:13:03.158Z,22.00
2022-12-24T08:17:04.317Z,19.70
2022-12-24T08:21:09.232Z,18.17
2022-12-24T08:25:10.587Z,16.60
2022-12-24T08:29:11.873Z,11.30
2022-12-24T08:33:12.820Z,14.53
2022-12-24T08:37:13.837Z,18.50
2022-12-24T08:41:14.897Z,24.33
2022-12-24T08:45:16.214Z,17.83
2022-12-24T08:49:17.387Z,15.90
2022-12-24T08:53:18.566Z,14.67
2022-12-24T08:57:20.183Z,21.03
2022-12-24T09:01:21.363Z,22.30
2022-12-24T09:05:22.583Z,18.50
2022-12-24T09:09:23.902Z,13.17
2022-12-24T09:13:25.045Z,17.67
2022-12-24T09:17:26.136Z,12.83
2022-12-24T09:21:27.303Z,11.87
2022-12-24T09:25:28.429Z,12.10
2022-12-24T09:29:30.714Z,11.70
2022-12-24T09:33:34.707Z,7.27
2022-12-24T09:37:37.396Z,10.77
2022-12-24T09:41:57.373Z,8.93
2022-12-24T09:46:20.326Z,9.33
2022-12-24T09:50:36.778Z,10.83
2022-12-24T09:54:49.282Z,9.43
2022-12-24T09:58:50.641Z,15.70
2022-12-24T10:02:52.237Z,11.40
2022-12-24T10:07:06.237Z,13.23
2022-12-24T10:11:20.425Z,13.17
2022-12-24T10:15:31.487Z,15.30
2022-12-24T10:19:45.118Z,17.93
2022-12-24T10:23:50.330Z,14.63
2022-12-24T10:27:54.497Z,12.43
2022-12-24T10:32:02.452Z,10.87
2022-12-24T10:36:11.746Z,9.80
2022-12-24T10:40:29.988Z,10.47
2022-12-24T10:44:32.899Z,11.97
2022-12-24T10:48:53.089Z,11.83
2022-12-24T10:52:57.911Z,10.23
2022-12-24T10:57:01.831Z,12.87
2022-12-24T11:01:03.332Z,11.90
2022-12-24T11:05:08.113Z,12.50
2022-12-24T11:09:18.794Z,13.33
2022-12-24T11:13:37.943Z,17.37
2022-12-24T11:17:35.587Z,19.90
2022-12-24T11:21:39.464Z,14.43
2022-12-24T11:25:43.025Z,10.80
2022-12-24T11:29:44.177Z,9.93
2022-12-24T11:33:48.183Z,11.00
2022-12-24T11:38:02.547Z,8.37
2022-12-24T11:42:03.868Z,14.97
2022-12-24T11:46:08.822Z,11.73
2022-12-24T11:50:22.042Z,8.27
2022-12-24T11:54:29.406Z,10.93
2022-12-24T11:58:37.108Z,8.97
2022-12-24T12:02:40.892Z,8.63
2022-12-24T12:06:46.055Z,12.37
2022-12-24T12:10:50.524Z,12.67
2022-12-24T12:14:55.443Z,11.90
2022-12-24T12:19:02.969Z,12.03
2022-12-24T12:23:26.003Z,9.20
2022-12-24T12:27:39.688Z,15.80
2022-12-24T12:31:44.132Z,9.63
2022-12-24T12:35:47.273Z,14.30
2022-12-24T12:39:48.450Z,11.37
2022-12-24T12:44:11.562Z,10.07
2022-12-24T12:48:53.615Z,12.07
2022-12-24T12:53:12.494Z,11.93
2022-12-24T12:57:17.404Z,7.90
2022-12-24T13:01:43.519Z,8.53
2022-12-24T13:06:04.056Z,13.63
2022-12-24T13:10:27.161Z,11.50
2022-12-24T13:14:38.157Z,12.90
2022-12-24T13:18:46.254Z,15.13
2022-12-24T13:22:50.973Z,12.77
2022-12-24T13:27:05.286Z,11.00
2022-12-24T13:31:24.028Z,10.40
2022-12-24T13:35:37.177Z,12.13
2022-12-24T13:40:07.246Z,9.93
2022-12-24T13:44:15.511Z,8.63
2022-12-24T13:48:20.484Z,11.70
2022-12-24T13:52:25.527Z,11.20
2022-12-24T13:56:29.154Z,15.47
2022-12-24T14:00:34.051Z,13.53
2022-12-24T14:04:37.167Z,17.40
2022-12-24T14:08:44.810Z,10.80
2022-12-24T14:12:49.231Z,12.87
2022-12-24T14:16:51.082Z,10.17
2022-12-24T14:20:54.523Z,9.83
2022-12-24T14:25:18.903Z,5.43
2022-12-24T14:29:25.164Z,11.00
2022-12-24T14:33:34.892Z,11.10
2022-12-24T14:37:36.434Z,13.00
2022-12-24T14:41:59.474Z,12.37
2022-12-24T14:46:28.731Z,8.90
2022-12-24T14:50:55.988Z,7.53
2022-12-24T14:54:56.969Z,10.80
2022-12-24T14:59:00.379Z,11.93
2022-12-24T15:03:01.445Z,16.40
2022-12-24T15:07:04.591Z,9.63
2022-12-24T15:11:09.523Z,13.33
2022-12-24T15:15:16.428Z,16.03
2022-12-24T15:19:33.400Z,24.97
2022-12-24T15:23:36.823Z,16.67
2022-12-24T15:27:38.826Z,11.17
2022-12-24T15:31:40.009Z,16.70
2022-12-24T15:35:51.322Z,17.73
2022-12-24T15:40:08.052Z,14.43
2022-12-24T15:44:12.795Z,20.10
2022-12-24T15:48:26.671Z,17.32
2022-12-24T15:52:27.848Z,11.73
2022-12-24T15:56:43.141Z,19.53
2022-12-24T16:00:46.186Z,22.00
2022-12-24T16:04:47.350Z,21.23
2022-12-24T16:08:51.405Z,24.73
2022-12-24T16:12:53.092Z,15.47
2022-12-24T16:16:56.020Z,15.17
2022-12-24T16:20:57.192Z,17.63
2022-12-24T16:24:59.616Z,20.53
2022-12-24T16:29:01.189Z,35.97
2022-12-24T16:33:02.348Z,25.83
2022-12-24T16:37:03.950Z,23.83
2022-12-24T16:41:06.558Z,31.97
2022-12-24T16:45:09.784Z,25.50
2022-12-24T16:49:17.516Z,24.80
2022-12-24T16:53:21.543Z,20.80
2022-12-24T16:57:23.660Z,18.57
2022-12-24T17:01:25.049Z,15.57
2022-12-24T17:05:26.551Z,14.73
2022-12-24T17:09:27.603Z,18.87
2022-12-24T17:13:28.670Z,13.83
2022-12-24T17:17:29.829Z,13.80
2022-12-24T17:21:31.964Z,21.70
2022-12-24T17:25:35.577Z,15.43
2022-12-24T17:29:36.797Z,13.17
2022-12-24T17:33:38.320Z,19.73
2022-12-24T17:37:39.386Z,27.03
2022-12-24T17:41:41.213Z,20.50
2022-12-24T17:45:42.387Z,17.70
2022-12-24T17:49:43.410Z,25.90
2022-12-24T17:53:45.319Z,19.60
2022-12-24T17:57:47.144Z,24.70
2022-12-24T18:01:48.451Z,21.70
2022-12-24T18:05:50.079Z,24.93
2022-12-24T18:09:51.224Z,20.87
2022-12-24T18:13:54.163Z,20.47
2022-12-24T18:17:55.787Z,27.37
2022-12-24T18:21:57.085Z,20.03
2022-12-24T18:26:05.838Z,16.30
2022-12-24T18:30:08.344Z,12.10
2022-12-24T18:34:12.817Z,19.00
2022-12-24T18:38:14.564Z,17.27
2022-12-24T18:42:16.142Z,17.80
2022-12-24T18:46:20.324Z,16.13
2022-12-24T18:50:21.775Z,14.47
2022-12-24T18:54:22.944Z,21.40
2022-12-24T18:58:24.513Z,12.13
2022-12-24T19:02:25.501Z,16.83
2022-12-24T19:06:27.296Z,21.43
2022-12-24T19:10:28.615Z,16.53
2022-12-24T19:14:29.955Z,20.43
2022-12-24T19:18:31.471Z,20.57
2022-12-24T19:22:32.820Z,50.70
2022-12-24T19:26:33.925Z,22.93
2022-12-24T19:30:41.442Z,14.23
2022-12-24T19:34:42.711Z,10.37
2022-12-24T19:38:44.373Z,22.33
2022-12-24T19:42:47.402Z,19.03
2022-12-24T19:46:48.561Z,17.57
2022-12-24T19:50:49.604Z,14.00
2022-12-24T19:54:50.746Z,12.10
2022-12-24T19:58:52.368Z,9.53
2022-12-24T20:02:54.733Z,9.03
2022-12-24T20:06:59.947Z,8.97
2022-12-24T20:11:00.704Z,9.23
2022-12-24T20:15:01.780Z,9.93
2022-12-24T20:19:06.072Z,9.63
2022-12-24T20:23:08.225Z,7.90
2022-12-24T20:27:09.495Z,8.33
2022-12-24T20:31:16.730Z,12.43
2022-12-24T20:35:17.802Z,10.53
2022-12-24T20:39:18.932Z,8.20
2022-12-24T20:43:24.245Z,17.63
2022-12-24T20:47:23.324Z,19.30
2022-12-24T20:51:26.574Z,14.73
2022-12-24T20:55:27.792Z,9.53
2022-12-24T20:59:28.819Z,9.10
2022-12-24T21:03:30.031Z,20.07
2022-12-24T21:07:31.296Z,15.70
2022-12-24T21:11:52.196Z,9.17
2022-12-24T21:15:53.096Z,14.00
2022-12-24T21:19:54.114Z,14.73
2022-12-24T21:23:55.335Z,19.35
2022-12-24T21:27:56.681Z,10.97
2022-12-24T21:31:57.769Z,17.00
2022-12-24T21:35:59.371Z,17.97
2022-12-24T21:40:00.502Z,14.67
2022-12-24T21:44:01.876Z,7.03
2022-12-24T21:48:05.284Z,14.63
2022-12-24T21:52:06.239Z,10.00
2022-12-24T21:56:11.514Z,15.97
2022-12-24T22:00:22.254Z,20.30
2022-12-24T22:04:25.677Z,20.32
2022-12-24T22:08:44.992Z,16.03
2022-12-24T22:12:46.580Z,13.70
2022-12-24T22:16:47.835Z,17.30
2022-12-24T22:20:49.925Z,19.23
2022-12-24T22:24:50.925Z,11.83
2022-12-24T22:28:51.943Z,17.27
2022-12-24T22:32:53.143Z,24.17
2022-12-24T22:36:55.312Z,16.60
2022-12-24T22:40:56.547Z,23.50
2022-12-24T22:44:58.082Z,13.60
2022-12-24T22:48:59.202Z,11.37
2022-12-24T22:53:00.294Z,12.57
2022-12-24T22:57:01.244Z,13.83
2022-12-24T23:01:02.846Z,17.20
2022-12-24T23:05:04.525Z,22.40
2022-12-24T23:09:08.185Z,26.83
2022-12-24T23:13:30.408Z,23.60
2022-12-24T23:17:31.478Z,23.33
2022-12-24T23:21:33.338Z,26.60
2022-12-24T23:25:34.824Z,36.30
2022-12-24T23:29:35.838Z,31.07
2022-12-24T23:33:37.076Z,37.23
2022-12-24T23:37:38.176Z,30.23
2022-12-24T23:41:39.448Z,39.63
2022-12-24T23:45:46.013Z,34.43
2022-12-24T23:49:47.730Z,36.33
2022-12-24T23:53:50.475Z,42.43
2022-12-24T23:57:51.651Z,42.70
